sensor_id;sensor_type;location;lat;lon;timestamp;temperature;humidity
25410;DHT22;13339;50.840;4.346;2023-09-08T00:02:00;25.60;99.90
25410;DHT22;13339;50.840;4.346;2023-09-08T00:04:26;25.60;99.90
25410;DHT22;13339;50.840;4.346;2023-09-08T00:06:52;25.60;99.90
25410;DHT22;13339;50.840;4.346;2023-09-08T00:09:17;25.50;99.90
25410;DHT22;13339;50.840;4.346;2023-09-08T00:11:43;25.40;99.90
25410;DHT22;13339;50.840;4.346;2023-09-08T00:14:08;25.40;99.90
25410;DHT22;13339;50.840;4.346;2023-09-08T00:16:34;25.50;99.90
25410;DHT22;13339;50.840;4.346;2023-09-08T00:19:00;25.40;99.90
25410;DHT22;13339;50.840;4.346;2023-09-08T00:21:26;25.40;99.90
25410;DHT22;13339;50.840;4.346;2023-09-08T00:23:52;25.40;99.90
25410;DHT22;13339;50.840;4.346;2023-09-08T00:26:18;25.30;99.90
25410;DHT22;13339;50.840;4.346;2023-09-08T00:28:43;25.30;99.90
25410;DHT22;13339;50.840;4.346;2023-09-08T00:31:09;25.30;99.90
25410;DHT22;13339;50.840;4.346;2023-09-08T00:33:34;25.30;99.90
25410;DHT22;13339;50.840;4.346;2023-09-08T00:36:00;25.30;99.90
25410;DHT22;13339;50.840;4.346;2023-09-08T00:38:26;25.20;99.90
25410;DHT22;13339;50.840;4.346;2023-09-08T00:40:52;25.20;99.90
25410;DHT22;13339;50.840;4.346;2023-09-08T00:43:17;25.00;99.90
25410;DHT22;13339;50.840;4.346;2023-09-08T00:45:43;25.00;99.90
25410;DHT22;13339;50.840;4.346;2023-09-08T00:48:10;24.90;99.90
25410;DHT22;13339;50.840;4.346;2023-09-08T00:50:36;25.00;99.90
25410;DHT22;13339;50.840;4.346;2023-09-08T00:53:05;25.00;99.90
25410;DHT22;13339;50.840;4.346;2023-09-08T00:55:31;25.10;99.90
25410;DHT22;13339;50.840;4.346;2023-09-08T00:57:58;25.10;99.90
25410;DHT22;13339;50.840;4.346;2023-09-08T01:00:25;25.00;99.90
25410;DHT22;13339;50.840;4.346;2023-09-08T01:02:50;25.00;99.90
25410;DHT22;13339;50.840;4.346;2023-09-08T01:05:16;25.00;99.90
25410;DHT22;13339;50.840;4.346;2023-09-08T01:07:42;24.90;99.90
25410;DHT22;13339;50.840;4.346;2023-09-08T01:10:09;24.90;99.90
25410;DHT22;13339;50.840;4.346;2023-09-08T01:12:35;24.90;99.90
25410;DHT22;13339;50.840;4.346;2023-09-08T01:15:02;24.90;99.90
25410;DHT22;13339;50.840;4.346;2023-09-08T01:17:28;24.90;99.90
25410;DHT22;13339;50.840;4.346;2023-09-08T01:20:04;24.80;99.90
25410;DHT22;13339;50.840;4.346;2023-09-08T01:25:41;24.90;99.90
25410;DHT22;13339;50.840;4.346;2023-09-08T01:28:11;24.90;99.90
25410;DHT22;13339;50.840;4.346;2023-09-08T01:30:37;24.90;99.90
25410;DHT22;13339;50.840;4.346;2023-09-08T01:33:04;24.90;99.90
25410;DHT22;13339;50.840;4.346;2023-09-08T01:35:30;24.80;99.90
25410;DHT22;13339;50.840;4.346;2023-09-08T01:37:57;24.80;99.90
25410;DHT22;13339;50.840;4.346;2023-09-08T01:40:22;24.60;99.90
25410;DHT22;13339;50.840;4.346;2023-09-08T01:42:48;24.60;99.90
25410;DHT22;13339;50.840;4.346;2023-09-08T01:45:14;24.60;99.90
25410;DHT22;13339;50.840;4.346;2023-09-08T01:47:40;24.60;99.90
25410;DHT22;13339;50.840;4.346;2023-09-08T01:50:06;24.60;99.90
25410;DHT22;13339;50.840;4.346;2023-09-08T01:52:32;24.60;99.90
25410;DHT22;13339;50.840;4.346;2023-09-08T01:54:57;24.60;99.90
25410;DHT22;13339;50.840;4.346;2023-09-08T01:57:23;24.50;99.90
25410;DHT22;13339;50.840;4.346;2023-09-08T01:59:49;24.60;99.90
25410;DHT22;13339;50.840;4.346;2023-09-08T02:02:14;24.50;99.90
25410;DHT22;13339;50.840;4.346;2023-09-08T02:04:40;24.60;99.90
25410;DHT22;13339;50.840;4.346;2023-09-08T02:07:06;24.60;99.90
25410;DHT22;13339;50.840;4.346;2023-09-08T02:09:35;24.60;99.90
25410;DHT22;13339;50.840;4.346;2023-09-08T02:12:03;24.60;99.90
25410;DHT22;13339;50.840;4.346;2023-09-08T02:14:28;24.60;99.90
25410;DHT22;13339;50.840;4.346;2023-09-08T02:16:55;24.60;99.90
25410;DHT22;13339;50.840;4.346;2023-09-08T02:19:21;24.50;99.90
25410;DHT22;13339;50.840;4.346;2023-09-08T02:21:47;24.40;99.90
25410;DHT22;13339;50.840;4.346;2023-09-08T02:24:13;24.40;99.90
25410;DHT22;13339;50.840;4.346;2023-09-08T02:26:40;24.40;99.90
25410;DHT22;13339;50.840;4.346;2023-09-08T02:29:05;24.50;99.90
25410;DHT22;13339;50.840;4.346;2023-09-08T02:31:31;24.40;99.90
25410;DHT22;13339;50.840;4.346;2023-09-08T02:33:56;24.40;99.90
25410;DHT22;13339;50.840;4.346;2023-09-08T02:36:22;24.40;99.90
25410;DHT22;13339;50.840;4.346;2023-09-08T02:38:54;24.40;99.90
25410;DHT22;13339;50.840;4.346;2023-09-08T02:41:20;24.40;99.90
25410;DHT22;13339;50.840;4.346;2023-09-08T02:43:45;24.40;99.90
25410;DHT22;13339;50.840;4.346;2023-09-08T02:46:11;24.40;99.90
25410;DHT22;13339;50.840;4.346;2023-09-08T02:48:37;24.30;99.90
25410;DHT22;13339;50.840;4.346;2023-09-08T02:51:03;24.40;99.90
25410;DHT22;13339;50.840;4.346;2023-09-08T02:53:29;24.30;99.90
25410;DHT22;13339;50.840;4.346;2023-09-08T02:55:58;24.30;99.90
25410;DHT22;13339;50.840;4.346;2023-09-08T02:58:24;24.30;99.90
25410;DHT22;13339;50.840;4.346;2023-09-08T03:00:50;24.40;99.90
25410;DHT22;13339;50.840;4.346;2023-09-08T03:03:18;24.40;99.90
25410;DHT22;13339;50.840;4.346;2023-09-08T03:05:44;24.40;99.90
25410;DHT22;13339;50.840;4.346;2023-09-08T03:08:09;24.30;99.90
25410;DHT22;13339;50.840;4.346;2023-09-08T03:10:35;24.30;99.90
25410;DHT22;13339;50.840;4.346;2023-09-08T03:13:01;24.20;99.90
25410;DHT22;13339;50.840;4.346;2023-09-08T03:15:27;24.20;99.90
25410;DHT22;13339;50.840;4.346;2023-09-08T03:17:58;24.20;99.90
25410;DHT22;13339;50.840;4.346;2023-09-08T03:20:24;24.30;99.90
25410;DHT22;13339;50.840;4.346;2023-09-08T03:22:52;24.30;99.90
25410;DHT22;13339;50.840;4.346;2023-09-08T03:25:17;24.20;99.90
25410;DHT22;13339;50.840;4.346;2023-09-08T03:27:43;24.10;99.90
25410;DHT22;13339;50.840;4.346;2023-09-08T03:30:09;24.10;99.90
25410;DHT22;13339;50.840;4.346;2023-09-08T03:32:36;24.00;99.90
25410;DHT22;13339;50.840;4.346;2023-09-08T03:35:01;24.00;99.90
25410;DHT22;13339;50.840;4.346;2023-09-08T03:37:28;24.00;99.90
25410;DHT22;13339;50.840;4.346;2023-09-08T03:39:54;24.00;99.90
25410;DHT22;13339;50.840;4.346;2023-09-08T03:42:19;24.00;99.90
25410;DHT22;13339;50.840;4.346;2023-09-08T03:44:45;24.00;99.90
25410;DHT22;13339;50.840;4.346;2023-09-08T03:47:11;24.00;99.90
25410;DHT22;13339;50.840;4.346;2023-09-08T03:49:36;24.00;99.90
25410;DHT22;13339;50.840;4.346;2023-09-08T03:52:02;23.90;99.90
25410;DHT22;13339;50.840;4.346;2023-09-08T03:54:28;23.80;99.90
25410;DHT22;13339;50.840;4.346;2023-09-08T03:56:53;23.70;99.90
25410;DHT22;13339;50.840;4.346;2023-09-08T03:59:19;23.70;99.90
25410;DHT22;13339;50.840;4.346;2023-09-08T04:01:45;23.60;99.90
25410;DHT22;13339;50.840;4.346;2023-09-08T04:04:10;23.60;99.90
25410;DHT22;13339;50.840;4.346;2023-09-08T04:06:36;23.70;99.90
25410;DHT22;13339;50.840;4.346;2023-09-08T04:09:01;23.70;99.90
25410;DHT22;13339;50.840;4.346;2023-09-08T04:11:27;23.60;99.90
25410;DHT22;13339;50.840;4.346;2023-09-08T04:13:53;23.60;99.90
25410;DHT22;13339;50.840;4.346;2023-09-08T04:16:18;23.80;99.90
25410;DHT22;13339;50.840;4.346;2023-09-08T04:18:44;23.80;99.90
25410;DHT22;13339;50.840;4.346;2023-09-08T04:21:10;23.80;99.90
25410;DHT22;13339;50.840;4.346;2023-09-08T04:23:35;23.90;99.90
25410;DHT22;13339;50.840;4.346;2023-09-08T04:26:01;23.80;99.90
25410;DHT22;13339;50.840;4.346;2023-09-08T04:28:27;23.70;99.90
25410;DHT22;13339;50.840;4.346;2023-09-08T04:30:53;23.70;99.90
25410;DHT22;13339;50.840;4.346;2023-09-08T04:33:18;23.70;99.90
25410;DHT22;13339;50.840;4.346;2023-09-08T04:35:44;23.70;99.90
25410;DHT22;13339;50.840;4.346;2023-09-08T04:38:10;23.80;99.90
25410;DHT22;13339;50.840;4.346;2023-09-08T04:40:36;23.70;99.90
25410;DHT22;13339;50.840;4.346;2023-09-08T04:43:02;23.70;99.90
25410;DHT22;13339;50.840;4.346;2023-09-08T04:45:28;23.80;99.90
25410;DHT22;13339;50.840;4.346;2023-09-08T04:47:53;23.80;99.90
25410;DHT22;13339;50.840;4.346;2023-09-08T04:50:19;23.70;99.90
25410;DHT22;13339;50.840;4.346;2023-09-08T04:52:44;23.70;99.90
25410;DHT22;13339;50.840;4.346;2023-09-08T04:55:10;23.60;99.90
25410;DHT22;13339;50.840;4.346;2023-09-08T04:57:36;23.60;99.90
25410;DHT22;13339;50.840;4.346;2023-09-08T05:00:02;23.70;99.90
25410;DHT22;13339;50.840;4.346;2023-09-08T05:02:28;23.70;99.90
25410;DHT22;13339;50.840;4.346;2023-09-08T05:04:54;23.60;99.90
25410;DHT22;13339;50.840;4.346;2023-09-08T05:07:19;23.40;99.90
25410;DHT22;13339;50.840;4.346;2023-09-08T05:09:45;23.30;99.90
25410;DHT22;13339;50.840;4.346;2023-09-08T05:12:10;23.20;99.90
25410;DHT22;13339;50.840;4.346;2023-09-08T05:14:36;23.10;99.90
25410;DHT22;13339;50.840;4.346;2023-09-08T05:17:02;23.20;99.90
25410;DHT22;13339;50.840;4.346;2023-09-08T05:19:28;23.20;99.90
25410;DHT22;13339;50.840;4.346;2023-09-08T05:21:55;23.30;99.90
25410;DHT22;13339;50.840;4.346;2023-09-08T05:24:21;23.30;99.90
25410;DHT22;13339;50.840;4.346;2023-09-08T05:26:46;23.30;99.90
25410;DHT22;13339;50.840;4.346;2023-09-08T05:29:12;23.10;99.90
25410;DHT22;13339;50.840;4.346;2023-09-08T05:31:38;23.10;99.90
25410;DHT22;13339;50.840;4.346;2023-09-08T05:34:04;23.20;99.90
25410;DHT22;13339;50.840;4.346;2023-09-08T05:36:29;23.20;99.90
25410;DHT22;13339;50.840;4.346;2023-09-08T05:38:56;23.20;99.90
25410;DHT22;13339;50.840;4.346;2023-09-08T05:41:22;23.10;99.90
25410;DHT22;13339;50.840;4.346;2023-09-08T05:43:48;23.10;99.90
25410;DHT22;13339;50.840;4.346;2023-09-08T05:46:13;23.20;99.90
25410;DHT22;13339;50.840;4.346;2023-09-08T05:48:39;23.30;99.90
25410;DHT22;13339;50.840;4.346;2023-09-08T05:51:05;23.30;99.90
25410;DHT22;13339;50.840;4.346;2023-09-08T05:53:32;23.30;99.90
25410;DHT22;13339;50.840;4.346;2023-09-08T05:55:58;23.30;99.90
25410;DHT22;13339;50.840;4.346;2023-09-08T05:58:24;23.40;99.90
25410;DHT22;13339;50.840;4.346;2023-09-08T06:00:55;23.50;99.90
25410;DHT22;13339;50.840;4.346;2023-09-08T06:03:21;23.30;99.90
25410;DHT22;13339;50.840;4.346;2023-09-08T06:05:46;23.40;99.90
25410;DHT22;13339;50.840;4.346;2023-09-08T06:08:12;23.50;99.90
25410;DHT22;13339;50.840;4.346;2023-09-08T06:10:38;23.50;99.90
25410;DHT22;13339;50.840;4.346;2023-09-08T06:13:04;23.50;99.90
25410;DHT22;13339;50.840;4.346;2023-09-08T06:15:30;23.50;99.90
25410;DHT22;13339;50.840;4.346;2023-09-08T06:17:55;23.50;99.90
25410;DHT22;13339;50.840;4.346;2023-09-08T06:20:21;23.40;99.90
25410;DHT22;13339;50.840;4.346;2023-09-08T06:22:47;23.30;99.90
25410;DHT22;13339;50.840;4.346;2023-09-08T06:25:13;23.30;99.90
25410;DHT22;13339;50.840;4.346;2023-09-08T06:27:38;23.30;99.90
25410;DHT22;13339;50.840;4.346;2023-09-08T06:30:05;23.30;99.90
25410;DHT22;13339;50.840;4.346;2023-09-08T06:32:30;23.50;99.90
25410;DHT22;13339;50.840;4.346;2023-09-08T06:34:56;23.40;99.90
25410;DHT22;13339;50.840;4.346;2023-09-08T06:37:22;23.40;99.90
25410;DHT22;13339;50.840;4.346;2023-09-08T06:39:47;23.40;99.90
25410;DHT22;13339;50.840;4.346;2023-09-08T06:42:13;23.50;99.90
25410;DHT22;13339;50.840;4.346;2023-09-08T06:44:39;23.50;99.90
25410;DHT22;13339;50.840;4.346;2023-09-08T06:47:04;23.50;99.90
25410;DHT22;13339;50.840;4.346;2023-09-08T06:49:32;23.50;99.90
25410;DHT22;13339;50.840;4.346;2023-09-08T06:51:58;23.50;99.90
25410;DHT22;13339;50.840;4.346;2023-09-08T06:54:24;23.60;99.90
25410;DHT22;13339;50.840;4.346;2023-09-08T06:56:49;23.70;99.90
25410;DHT22;13339;50.840;4.346;2023-09-08T06:59:16;23.60;99.90
25410;DHT22;13339;50.840;4.346;2023-09-08T07:01:42;23.80;99.90
25410;DHT22;13339;50.840;4.346;2023-09-08T07:04:08;23.70;99.90
25410;DHT22;13339;50.840;4.346;2023-09-08T07:06:34;23.70;99.90
25410;DHT22;13339;50.840;4.346;2023-09-08T07:09:01;23.80;99.90
25410;DHT22;13339;50.840;4.346;2023-09-08T07:11:27;23.90;99.90
25410;DHT22;13339;50.840;4.346;2023-09-08T07:13:53;23.90;99.90
25410;DHT22;13339;50.840;4.346;2023-09-08T07:16:18;23.90;99.90
25410;DHT22;13339;50.840;4.346;2023-09-08T07:18:44;23.80;99.90
25410;DHT22;13339;50.840;4.346;2023-09-08T07:21:09;23.90;99.90
25410;DHT22;13339;50.840;4.346;2023-09-08T07:23:35;23.80;99.90
25410;DHT22;13339;50.840;4.346;2023-09-08T07:26:02;24.00;99.90
25410;DHT22;13339;50.840;4.346;2023-09-08T07:28:28;24.10;99.90
25410;DHT22;13339;50.840;4.346;2023-09-08T07:30:53;24.20;99.90
25410;DHT22;13339;50.840;4.346;2023-09-08T07:33:19;24.10;99.90
25410;DHT22;13339;50.840;4.346;2023-09-08T07:35:45;24.20;99.90
25410;DHT22;13339;50.840;4.346;2023-09-08T07:38:10;24.30;99.90
25410;DHT22;13339;50.840;4.346;2023-09-08T07:40:36;24.40;99.90
25410;DHT22;13339;50.840;4.346;2023-09-08T07:43:02;24.40;99.90
25410;DHT22;13339;50.840;4.346;2023-09-08T07:45:28;24.50;99.90
25410;DHT22;13339;50.840;4.346;2023-09-08T07:47:54;24.60;99.90
25410;DHT22;13339;50.840;4.346;2023-09-08T07:50:22;24.50;99.90
25410;DHT22;13339;50.840;4.346;2023-09-08T07:52:49;24.60;99.90
25410;DHT22;13339;50.840;4.346;2023-09-08T07:55:15;24.60;99.90
25410;DHT22;13339;50.840;4.346;2023-09-08T07:57:42;24.70;99.90
25410;DHT22;13339;50.840;4.346;2023-09-08T08:00:09;24.80;99.90
25410;DHT22;13339;50.840;4.346;2023-09-08T08:02:46;24.90;99.90
25410;DHT22;13339;50.840;4.346;2023-09-08T08:05:12;24.90;99.90
25410;DHT22;13339;50.840;4.346;2023-09-08T08:07:39;24.90;99.90
25410;DHT22;13339;50.840;4.346;2023-09-08T08:10:06;25.00;99.90
25410;DHT22;13339;50.840;4.346;2023-09-08T08:12:32;25.40;99.90
25410;DHT22;13339;50.840;4.346;2023-09-08T08:14:57;25.70;99.90
25410;DHT22;13339;50.840;4.346;2023-09-08T08:17:24;26.00;99.90
25410;DHT22;13339;50.840;4.346;2023-09-08T08:19:51;26.20;99.90
25410;DHT22;13339;50.840;4.346;2023-09-08T08:22:16;26.30;99.90
25410;DHT22;13339;50.840;4.346;2023-09-08T08:24:42;26.40;99.90
25410;DHT22;13339;50.840;4.346;2023-09-08T08:27:07;26.40;99.90
25410;DHT22;13339;50.840;4.346;2023-09-08T08:29:33;26.50;99.90
25410;DHT22;13339;50.840;4.346;2023-09-08T08:31:59;26.50;99.90
25410;DHT22;13339;50.840;4.346;2023-09-08T08:34:24;26.50;99.90
25410;DHT22;13339;50.840;4.346;2023-09-08T08:36:50;26.50;99.90
25410;DHT22;13339;50.840;4.346;2023-09-08T08:39:17;26.60;99.90
25410;DHT22;13339;50.840;4.346;2023-09-08T08:41:43;26.60;99.90
25410;DHT22;13339;50.840;4.346;2023-09-08T08:44:09;26.60;99.90
25410;DHT22;13339;50.840;4.346;2023-09-08T08:46:36;26.60;99.90
25410;DHT22;13339;50.840;4.346;2023-09-08T08:49:06;26.60;99.90
25410;DHT22;13339;50.840;4.346;2023-09-08T08:51:32;26.60;99.90
25410;DHT22;13339;50.840;4.346;2023-09-08T08:53:58;26.70;99.90
25410;DHT22;13339;50.840;4.346;2023-09-08T08:56:26;26.70;99.90
25410;DHT22;13339;50.840;4.346;2023-09-08T08:58:52;26.70;99.90
25410;DHT22;13339;50.840;4.346;2023-09-08T09:01:18;26.70;99.90
25410;DHT22;13339;50.840;4.346;2023-09-08T09:03:49;26.80;99.90
25410;DHT22;13339;50.840;4.346;2023-09-08T09:06:15;26.80;99.90
25410;DHT22;13339;50.840;4.346;2023-09-08T09:08:43;26.90;99.90
25410;DHT22;13339;50.840;4.346;2023-09-08T09:11:10;26.90;99.90
25410;DHT22;13339;50.840;4.346;2023-09-08T09:13:36;27.00;99.90
25410;DHT22;13339;50.840;4.346;2023-09-08T09:16:02;27.00;99.90
25410;DHT22;13339;50.840;4.346;2023-09-08T09:18:31;27.10;99.90
25410;DHT22;13339;50.840;4.346;2023-09-08T09:21:00;27.30;99.90
25410;DHT22;13339;50.840;4.346;2023-09-08T09:23:33;27.30;99.90
25410;DHT22;13339;50.840;4.346;2023-09-08T09:26:00;27.40;99.90
25410;DHT22;13339;50.840;4.346;2023-09-08T09:28:28;27.50;99.90
25410;DHT22;13339;50.840;4.346;2023-09-08T09:30:54;27.50;99.90
25410;DHT22;13339;50.840;4.346;2023-09-08T09:33:21;27.60;99.90
25410;DHT22;13339;50.840;4.346;2023-09-08T09:35:50;27.70;99.90
25410;DHT22;13339;50.840;4.346;2023-09-08T09:38:15;27.80;99.90
25410;DHT22;13339;50.840;4.346;2023-09-08T09:40:44;27.90;99.90
25410;DHT22;13339;50.840;4.346;2023-09-08T09:43:10;28.00;99.90
25410;DHT22;13339;50.840;4.346;2023-09-08T09:45:40;28.10;99.90
25410;DHT22;13339;50.840;4.346;2023-09-08T09:48:08;28.20;99.90
25410;DHT22;13339;50.840;4.346;2023-09-08T09:50:41;28.30;99.90
25410;DHT22;13339;50.840;4.346;2023-09-08T09:53:12;28.40;99.90
25410;DHT22;13339;50.840;4.346;2023-09-08T09:55:39;28.50;99.90
25410;DHT22;13339;50.840;4.346;2023-09-08T09:58:05;28.50;99.90
25410;DHT22;13339;50.840;4.346;2023-09-08T10:00:34;28.60;99.90
25410;DHT22;13339;50.840;4.346;2023-09-08T10:03:00;28.70;99.90
25410;DHT22;13339;50.840;4.346;2023-09-08T10:05:27;28.80;99.90
25410;DHT22;13339;50.840;4.346;2023-09-08T10:07:53;28.90;99.90
25410;DHT22;13339;50.840;4.346;2023-09-08T10:10:20;29.10;99.90
25410;DHT22;13339;50.840;4.346;2023-09-08T10:12:52;29.10;99.90
25410;DHT22;13339;50.840;4.346;2023-09-08T10:15:21;29.30;99.90
25410;DHT22;13339;50.840;4.346;2023-09-08T10:17:51;29.40;99.90
25410;DHT22;13339;50.840;4.346;2023-09-08T10:20:18;29.40;99.90
25410;DHT22;13339;50.840;4.346;2023-09-08T10:22:47;29.50;99.90
25410;DHT22;13339;50.840;4.346;2023-09-08T10:25:14;29.70;99.90
25410;DHT22;13339;50.840;4.346;2023-09-08T10:27:41;29.80;99.90
25410;DHT22;13339;50.840;4.346;2023-09-08T10:30:08;29.90;99.90
25410;DHT22;13339;50.840;4.346;2023-09-08T10:32:34;30.00;99.90
25410;DHT22;13339;50.840;4.346;2023-09-08T10:35:02;30.10;99.90
25410;DHT22;13339;50.840;4.346;2023-09-08T10:37:29;30.20;99.90
25410;DHT22;13339;50.840;4.346;2023-09-08T10:39:56;30.30;99.90
25410;DHT22;13339;50.840;4.346;2023-09-08T10:42:22;30.50;99.90
25410;DHT22;13339;50.840;4.346;2023-09-08T10:47:26;30.70;99.90
25410;DHT22;13339;50.840;4.346;2023-09-08T10:49:56;30.80;99.90
25410;DHT22;13339;50.840;4.346;2023-09-08T10:52:24;31.00;99.90
25410;DHT22;13339;50.840;4.346;2023-09-08T10:54:52;31.20;99.90
25410;DHT22;13339;50.840;4.346;2023-09-08T10:57:20;31.30;99.90
25410;DHT22;13339;50.840;4.346;2023-09-08T11:00:00;31.40;99.90
25410;DHT22;13339;50.840;4.346;2023-09-08T11:02:37;31.50;99.90
25410;DHT22;13339;50.840;4.346;2023-09-08T11:05:13;31.70;99.90
25410;DHT22;13339;50.840;4.346;2023-09-08T11:07:40;31.80;99.90
25410;DHT22;13339;50.840;4.346;2023-09-08T11:10:07;31.90;99.90
25410;DHT22;13339;50.840;4.346;2023-09-08T11:12:34;32.00;99.90
25410;DHT22;13339;50.840;4.346;2023-09-08T11:15:03;32.10;99.90
25410;DHT22;13339;50.840;4.346;2023-09-08T11:17:35;32.20;99.90
25410;DHT22;13339;50.840;4.346;2023-09-08T11:20:02;32.30;99.90
25410;DHT22;13339;50.840;4.346;2023-09-08T11:22:39;32.30;99.90
25410;DHT22;13339;50.840;4.346;2023-09-08T11:25:07;32.40;99.90
25410;DHT22;13339;50.840;4.346;2023-09-08T11:27:33;32.60;99.90
25410;DHT22;13339;50.840;4.346;2023-09-08T11:29:59;32.60;99.90
25410;DHT22;13339;50.840;4.346;2023-09-08T11:32:25;32.40;99.90
25410;DHT22;13339;50.840;4.346;2023-09-08T11:35:07;32.40;99.90
25410;DHT22;13339;50.840;4.346;2023-09-08T11:37:38;32.50;99.90
25410;DHT22;13339;50.840;4.346;2023-09-08T11:40:05;32.50;99.90
25410;DHT22;13339;50.840;4.346;2023-09-08T11:42:44;32.60;99.90
25410;DHT22;13339;50.840;4.346;2023-09-08T11:45:11;32.50;99.90
25410;DHT22;13339;50.840;4.346;2023-09-08T11:47:42;32.60;99.90
25410;DHT22;13339;50.840;4.346;2023-09-08T11:50:12;32.50;99.90
25410;DHT22;13339;50.840;4.346;2023-09-08T11:52:45;32.50;99.90
25410;DHT22;13339;50.840;4.346;2023-09-08T11:55:12;32.50;99.90
25410;DHT22;13339;50.840;4.346;2023-09-08T11:57:40;32.60;99.90
25410;DHT22;13339;50.840;4.346;2023-09-08T12:00:06;32.70;99.90
25410;DHT22;13339;50.840;4.346;2023-09-08T12:02:37;32.70;99.90
25410;DHT22;13339;50.840;4.346;2023-09-08T12:05:04;32.90;99.90
25410;DHT22;13339;50.840;4.346;2023-09-08T12:07:30;33.00;99.90
25410;DHT22;13339;50.840;4.346;2023-09-08T12:09:55;33.10;99.90
25410;DHT22;13339;50.840;4.346;2023-09-08T12:12:21;33.10;99.90
25410;DHT22;13339;50.840;4.346;2023-09-08T12:14:47;33.20;99.90
25410;DHT22;13339;50.840;4.346;2023-09-08T12:17:12;33.20;99.90
25410;DHT22;13339;50.840;4.346;2023-09-08T12:19:42;33.30;99.90
25410;DHT22;13339;50.840;4.346;2023-09-08T12:22:08;33.30;99.90
25410;DHT22;13339;50.840;4.346;2023-09-08T12:27:18;33.30;99.90
25410;DHT22;13339;50.840;4.346;2023-09-08T12:29:58;33.30;99.90
25410;DHT22;13339;50.840;4.346;2023-09-08T12:32:28;33.30;99.90
25410;DHT22;13339;50.840;4.346;2023-09-08T12:34:54;33.30;99.90
25410;DHT22;13339;50.840;4.346;2023-09-08T12:37:25;33.30;99.90
25410;DHT22;13339;50.840;4.346;2023-09-08T12:39:53;33.40;99.90
25410;DHT22;13339;50.840;4.346;2023-09-08T12:42:19;33.40;99.90
25410;DHT22;13339;50.840;4.346;2023-09-08T12:44:46;33.50;99.90
25410;DHT22;13339;50.840;4.346;2023-09-08T12:47:12;33.60;99.90
25410;DHT22;13339;50.840;4.346;2023-09-08T12:49:38;33.50;99.90
25410;DHT22;13339;50.840;4.346;2023-09-08T12:52:04;33.50;99.90
25410;DHT22;13339;50.840;4.346;2023-09-08T12:54:31;33.40;99.90
25410;DHT22;13339;50.840;4.346;2023-09-08T12:56:57;33.40;99.90
25410;DHT22;13339;50.840;4.346;2023-09-08T12:59:22;33.40;99.90
25410;DHT22;13339;50.840;4.346;2023-09-08T13:01:48;33.40;99.90
25410;DHT22;13339;50.840;4.346;2023-09-08T13:04:14;33.60;99.90
25410;DHT22;13339;50.840;4.346;2023-09-08T13:06:40;33.60;99.90
25410;DHT22;13339;50.840;4.346;2023-09-08T13:09:05;33.60;99.90
25410;DHT22;13339;50.840;4.346;2023-09-08T13:11:32;33.60;99.90
25410;DHT22;13339;50.840;4.346;2023-09-08T13:13:58;33.60;99.90
25410;DHT22;13339;50.840;4.346;2023-09-08T13:16:24;33.70;99.90
25410;DHT22;13339;50.840;4.346;2023-09-08T13:18:49;33.70;99.90
25410;DHT22;13339;50.840;4.346;2023-09-08T13:21:16;33.60;99.90
25410;DHT22;13339;50.840;4.346;2023-09-08T13:23:42;33.50;99.90
25410;DHT22;13339;50.840;4.346;2023-09-08T13:26:07;33.60;99.90
25410;DHT22;13339;50.840;4.346;2023-09-08T13:28:33;33.40;99.90
25410;DHT22;13339;50.840;4.346;2023-09-08T13:30:59;33.40;99.90
25410;DHT22;13339;50.840;4.346;2023-09-08T13:33:24;33.40;99.90
25410;DHT22;13339;50.840;4.346;2023-09-08T13:35:50;33.50;99.90
25410;DHT22;13339;50.840;4.346;2023-09-08T13:38:15;33.40;99.90
25410;DHT22;13339;50.840;4.346;2023-09-08T13:40:41;33.60;99.90
25410;DHT22;13339;50.840;4.346;2023-09-08T13:43:07;33.60;99.90
25410;DHT22;13339;50.840;4.346;2023-09-08T13:45:33;33.60;99.90
25410;DHT22;13339;50.840;4.346;2023-09-08T13:47:58;33.60;99.90
25410;DHT22;13339;50.840;4.346;2023-09-08T13:50:24;33.50;99.90
25410;DHT22;13339;50.840;4.346;2023-09-08T13:52:50;33.50;99.90
25410;DHT22;13339;50.840;4.346;2023-09-08T13:55:15;33.40;99.90
25410;DHT22;13339;50.840;4.346;2023-09-08T13:57:41;33.40;99.90
25410;DHT22;13339;50.840;4.346;2023-09-08T14:00:07;33.40;99.90
25410;DHT22;13339;50.840;4.346;2023-09-08T14:02:37;33.40;99.90
25410;DHT22;13339;50.840;4.346;2023-09-08T14:05:02;33.20;99.90
25410;DHT22;13339;50.840;4.346;2023-09-08T14:07:28;33.20;99.90
25410;DHT22;13339;50.840;4.346;2023-09-08T14:09:54;33.30;99.90
25410;DHT22;13339;50.840;4.346;2023-09-08T14:12:19;33.30;99.90
25410;DHT22;13339;50.840;4.346;2023-09-08T14:14:45;33.30;99.90
25410;DHT22;13339;50.840;4.346;2023-09-08T14:17:11;33.30;99.90
25410;DHT22;13339;50.840;4.346;2023-09-08T14:19:36;33.20;99.90
25410;DHT22;13339;50.840;4.346;2023-09-08T14:22:02;33.20;99.90
25410;DHT22;13339;50.840;4.346;2023-09-08T14:24:27;33.20;99.90
25410;DHT22;13339;50.840;4.346;2023-09-08T14:26:53;33.20;99.90
25410;DHT22;13339;50.840;4.346;2023-09-08T14:29:21;33.00;99.90
25410;DHT22;13339;50.840;4.346;2023-09-08T14:31:48;33.00;99.90
25410;DHT22;13339;50.840;4.346;2023-09-08T14:34:14;33.00;99.90
25410;DHT22;13339;50.840;4.346;2023-09-08T14:36:40;33.00;99.90
25410;DHT22;13339;50.840;4.346;2023-09-08T14:39:06;33.00;99.90
25410;DHT22;13339;50.840;4.346;2023-09-08T14:41:31;33.00;99.90
25410;DHT22;13339;50.840;4.346;2023-09-08T14:43:57;33.00;99.90
25410;DHT22;13339;50.840;4.346;2023-09-08T14:46:22;33.00;99.90
25410;DHT22;13339;50.840;4.346;2023-09-08T14:48:48;33.00;99.90
25410;DHT22;13339;50.840;4.346;2023-09-08T14:51:14;32.90;99.90
25410;DHT22;13339;50.840;4.346;2023-09-08T14:53:40;32.90;99.90
25410;DHT22;13339;50.840;4.346;2023-09-08T14:56:05;32.80;99.90
25410;DHT22;13339;50.840;4.346;2023-09-08T14:58:31;32.70;99.90
25410;DHT22;13339;50.840;4.346;2023-09-08T15:01:03;32.70;99.90
25410;DHT22;13339;50.840;4.346;2023-09-08T15:03:35;32.60;99.90
25410;DHT22;13339;50.840;4.346;2023-09-08T15:06:01;32.60;99.90
25410;DHT22;13339;50.840;4.346;2023-09-08T15:08:28;32.60;99.90
25410;DHT22;13339;50.840;4.346;2023-09-08T15:10:53;32.60;99.90
25410;DHT22;13339;50.840;4.346;2023-09-08T15:13:19;32.70;99.90
25410;DHT22;13339;50.840;4.346;2023-09-08T15:15:45;32.60;99.90
25410;DHT22;13339;50.840;4.346;2023-09-08T15:18:10;32.60;99.90
25410;DHT22;13339;50.840;4.346;2023-09-08T15:20:36;32.40;99.90
25410;DHT22;13339;50.840;4.346;2023-09-08T15:23:02;32.40;99.90
25410;DHT22;13339;50.840;4.346;2023-09-08T15:25:28;32.60;99.90
25410;DHT22;13339;50.840;4.346;2023-09-08T15:27:54;32.60;99.90
25410;DHT22;13339;50.840;4.346;2023-09-08T15:30:20;32.60;99.90
25410;DHT22;13339;50.840;4.346;2023-09-08T15:32:45;32.60;99.90
25410;DHT22;13339;50.840;4.346;2023-09-08T15:35:11;32.60;99.90